createdAt,value
2019-02-08T00:02:10.920Z,33.80
2019-02-08T00:04:43.118Z,38.70
2019-02-08T00:07:14.506Z,38.83
2019-02-08T00:09:45.456Z,39.27
2019-02-08T00:12:16.817Z,36.10
2019-02-08T00:14:47.765Z,36.20
2019-02-08T00:17:18.626Z,35.07
2019-02-08T00:19:49.612Z,35.10
2019-02-08T00:22:20.618Z,42.00
2019-02-08T00:24:51.706Z,40.13
2019-02-08T00:27:22.914Z,44.70
2019-02-08T00:29:54.262Z,39.53
2019-02-08T00:32:26.121Z,36.03
2019-02-08T00:34:57.424Z,34.60
2019-02-08T00:37:28.259Z,37.43
2019-02-08T00:39:58.976Z,40.70
2019-02-08T00:42:29.972Z,40.70
2019-02-08T00:45:01.880Z,38.43
2019-02-08T00:47:32.538Z,37.47
2019-02-08T00:50:03.542Z,35.73
2019-02-08T00:52:34.305Z,39.10
2019-02-08T00:55:05.814Z,39.43
2019-02-08T00:57:37.378Z,34.87
2019-02-08T01:00:10.647Z,35.33
2019-02-08T01:03:20.748Z,36.90
2019-02-08T01:05:51.509Z,32.93
2019-02-08T01:08:23.206Z,37.23
2019-02-08T01:10:54.155Z,38.97
2019-02-08T01:13:25.040Z,41.17
2019-02-08T01:15:55.875Z,39.30
2019-02-08T01:18:26.959Z,45.83
2019-02-08T01:20:57.725Z,44.30
2019-02-08T01:23:28.607Z,36.03
2019-02-08T01:25:59.309Z,37.03
2019-02-08T01:28:30.305Z,38.93
2019-02-08T01:31:01.512Z,37.30
2019-02-08T01:33:32.491Z,36.43
2019-02-08T01:36:03.813Z,38.37
2019-02-08T01:38:34.783Z,37.97
2019-02-08T01:41:06.017Z,34.23
2019-02-08T01:43:37.006Z,36.43
2019-02-08T01:46:08.030Z,36.10
2019-02-08T01:48:39.045Z,33.97
2019-02-08T01:51:10.244Z,35.63
2019-02-08T01:53:48.353Z,37.13
2019-02-08T01:56:13.716Z,33.30
2019-02-08T01:58:44.308Z,32.67
2019-02-08T02:01:15.086Z,37.37
2019-02-08T02:03:45.936Z,35.67
2019-02-08T02:06:16.692Z,38.33
2019-02-08T02:08:47.504Z,36.90
2019-02-08T02:11:18.284Z,36.80
2019-02-08T02:13:48.988Z,46.17
2019-02-08T02:16:19.864Z,40.57
2019-02-08T02:18:50.835Z,38.50
2019-02-08T02:21:21.951Z,36.20
2019-02-08T02:23:56.235Z,32.03
2019-02-08T02:26:25.176Z,37.77
2019-02-08T02:28:55.732Z,32.03
2019-02-08T02:31:26.880Z,43.77
2019-02-08T02:33:57.760Z,39.67
2019-02-08T02:36:28.947Z,34.23
2019-02-08T02:38:59.764Z,40.47
2019-02-08T02:41:30.709Z,36.07
2019-02-08T02:44:01.669Z,33.37
2019-02-08T02:46:32.583Z,35.10
2019-02-08T02:49:03.294Z,34.80
2019-02-08T02:51:34.106Z,34.73
2019-02-08T02:54:05.247Z,35.93
2019-02-08T02:56:36.228Z,34.30
2019-02-08T02:59:07.567Z,34.33
2019-02-08T03:01:38.446Z,39.23
2019-02-08T03:04:09.321Z,40.23
2019-02-08T03:06:40.333Z,35.00
2019-02-08T03:09:11.946Z,34.30
2019-02-08T03:11:43.219Z,39.23
2019-02-08T03:14:14.089Z,34.00
2019-02-08T03:16:44.783Z,35.07
2019-02-08T03:19:15.584Z,36.10
2019-02-08T03:21:46.357Z,36.43
2019-02-08T03:24:17.333Z,42.70
2019-02-08T03:26:48.045Z,38.47
2019-02-08T03:29:18.905Z,39.70
2019-02-08T03:31:49.648Z,33.83
2019-02-08T03:34:20.718Z,41.17
2019-02-08T03:36:51.820Z,32.27
2019-02-08T03:39:22.676Z,41.10
2019-02-08T03:41:53.395Z,37.63
2019-02-08T03:44:26.424Z,39.43
2019-02-08T03:46:57.180Z,33.67
2019-02-08T03:49:27.819Z,36.87
2019-02-08T03:51:58.504Z,36.60
2019-02-08T03:54:29.222Z,34.20
2019-02-08T03:57:00.172Z,35.77
2019-02-08T03:59:31.091Z,32.33
2019-02-08T04:02:02.022Z,37.13
2019-02-08T04:04:32.946Z,35.77
2019-02-08T04:07:04.003Z,36.50
2019-02-08T04:09:35.078Z,34.37
2019-02-08T04:12:05.928Z,40.30
2019-02-08T04:14:36.892Z,40.13
2019-02-08T04:17:07.754Z,41.97
2019-02-08T04:19:38.607Z,42.50
2019-02-08T04:22:09.598Z,40.70
2019-02-08T04:24:40.584Z,38.67
2019-02-08T04:27:11.506Z,44.90
2019-02-08T04:29:42.343Z,44.10
2019-02-08T04:32:13.202Z,44.73
2019-02-08T04:34:44.232Z,42.83
2019-02-08T04:37:15.261Z,44.80
2019-02-08T04:39:46.323Z,44.60
2019-02-08T04:42:16.799Z,44.87
2019-02-08T04:44:47.389Z,46.93
2019-02-08T04:47:18.064Z,50.73
2019-02-08T04:49:49.412Z,55.00
2019-02-08T04:52:20.106Z,46.63
2019-02-08T04:54:50.744Z,49.30
2019-02-08T04:57:21.969Z,46.13
2019-02-08T04:59:52.618Z,48.37
2019-02-08T05:02:23.646Z,42.97
2019-02-08T05:04:54.525Z,47.10
2019-02-08T05:07:26.324Z,49.47
2019-02-08T05:09:57.274Z,42.73
2019-02-08T05:12:28.066Z,44.70
2019-02-08T05:14:58.703Z,37.77
2019-02-08T05:17:29.612Z,42.80
2019-02-08T05:20:00.527Z,45.03
2019-02-08T05:22:32.169Z,45.10
2019-02-08T05:25:02.980Z,43.37
2019-02-08T05:27:34.093Z,42.30
2019-02-08T05:30:08.211Z,42.13
2019-02-08T05:32:39.014Z,43.07
2019-02-08T05:35:10.021Z,45.47
2019-02-08T05:37:43.015Z,43.93
2019-02-08T05:40:14.161Z,41.37
2019-02-08T05:42:45.137Z,44.10
2019-02-08T05:45:17.096Z,42.53
2019-02-08T05:47:48.048Z,44.20
2019-02-08T05:50:20.946Z,44.90
2019-02-08T05:52:51.914Z,50.43
2019-02-08T05:55:25.641Z,53.20
2019-02-08T05:57:56.453Z,51.97
2019-02-08T06:00:34.847Z,48.83
2019-02-08T06:03:06.272Z,53.73
2019-02-08T06:05:38.632Z,62.00
2019-02-08T06:08:09.923Z,49.77
2019-02-08T06:10:41.104Z,45.87
2019-02-08T06:13:12.138Z,47.07
2019-02-08T06:15:43.260Z,50.40
2019-02-08T06:18:14.443Z,60.17
2019-02-08T06:20:45.342Z,44.17
2019-02-08T06:23:16.103Z,42.53
2019-02-08T06:25:46.736Z,41.70
2019-02-08T06:28:17.284Z,43.00
2019-02-08T06:30:48.209Z,39.47
2019-02-08T06:33:18.752Z,42.70
2019-02-08T06:35:49.967Z,39.37
2019-02-08T06:38:20.881Z,43.70
2019-02-08T06:40:52.646Z,43.50
2019-02-08T06:43:23.416Z,41.43
2019-02-08T06:45:54.493Z,39.23
2019-02-08T06:48:27.314Z,46.97
2019-02-08T06:50:58.150Z,50.67
2019-02-08T06:53:29.596Z,50.83
2019-02-08T06:56:00.815Z,48.20
2019-02-08T06:58:35.929Z,46.07
2019-02-08T07:01:32.577Z,39.77
2019-02-08T07:04:21.539Z,37.57
2019-02-08T07:07:30.046Z,42.90
2019-02-08T07:10:19.723Z,45.40
2019-02-08T07:13:09.235Z,51.30
2019-02-08T07:15:57.759Z,47.80
2019-02-08T07:18:46.159Z,47.23
2019-02-08T07:21:49.206Z,45.50
2019-02-08T07:24:34.557Z,44.57
2019-02-08T07:27:36.757Z,39.67
2019-02-08T07:30:29.055Z,39.87
2019-02-08T07:33:18.943Z,41.03
2019-02-08T07:36:00.945Z,37.50
2019-02-08T07:38:54.267Z,43.70
2019-02-08T07:41:44.860Z,42.13
2019-02-08T07:44:38.334Z,39.67
2019-02-08T07:47:26.692Z,40.23
2019-02-08T07:50:15.846Z,41.13
2019-02-08T07:53:08.112Z,44.80
2019-02-08T07:55:53.980Z,46.40
2019-02-08T07:58:56.250Z,41.47
2019-02-08T08:01:44.584Z,43.20
2019-02-08T08:04:25.215Z,42.10
2019-02-08T08:07:14.234Z,41.93
2019-02-08T08:10:13.296Z,41.30
2019-02-08T08:13:09.268Z,36.37
2019-02-08T08:15:58.675Z,38.60
2019-02-08T08:18:51.511Z,40.43
2019-02-08T08:21:41.766Z,38.97
2019-02-08T08:24:25.363Z,37.30
2019-02-08T08:27:17.739Z,38.23
2019-02-08T08:30:16.353Z,38.30
2019-02-08T08:33:00.205Z,37.23
2019-02-08T08:35:47.395Z,34.77
2019-02-08T08:39:08.779Z,35.60
2019-02-08T08:42:28.640Z,38.50
2019-02-08T08:45:47.309Z,40.83
2019-02-08T08:48:44.703Z,39.73
2019-02-08T08:51:59.395Z,34.53
2019-02-08T08:55:00.931Z,33.50
2019-02-08T08:57:45.281Z,33.37
2019-02-08T09:01:09.057Z,35.70
2019-02-08T09:04:27.142Z,34.30
2019-02-08T09:07:39.768Z,32.23
2019-02-08T09:10:49.879Z,35.57
2019-02-08T09:14:07.428Z,35.67
2019-02-08T09:17:20.218Z,39.10
2019-02-08T09:20:35.462Z,37.70
2019-02-08T09:23:33.552Z,38.23
2019-02-08T09:26:37.954Z,39.67
2019-02-08T09:29:46.760Z,37.57
2019-02-08T09:33:09.664Z,33.53
2019-02-08T09:36:18.690Z,34.80
2019-02-08T09:39:24.026Z,37.53
2019-02-08T09:42:30.534Z,37.60
2019-02-08T09:45:50.744Z,36.20
2019-02-08T09:49:04.799Z,36.20
2019-02-08T09:52:23.027Z,33.40
2019-02-08T09:55:20.371Z,36.40
2019-02-08T09:58:20.099Z,35.10
2019-02-08T10:01:17.733Z,31.93
2019-02-08T10:04:22.440Z,33.27
2019-02-08T10:07:36.323Z,33.83
2019-02-08T10:10:47.560Z,35.97
2019-02-08T10:14:04.641Z,36.90
2019-02-08T10:17:17.067Z,31.70
2019-02-08T10:20:32.379Z,32.83
2019-02-08T10:23:46.180Z,33.97
2019-02-08T10:26:52.374Z,33.30
2019-02-08T10:30:01.082Z,33.17
2019-02-08T10:33:14.687Z,33.10
2019-02-08T10:36:21.712Z,29.77
2019-02-08T10:39:48.442Z,35.10
2019-02-08T10:43:07.872Z,32.70
2019-02-08T10:46:33.720Z,30.23
2019-02-08T10:49:44.008Z,33.17
2019-02-08T10:52:54.340Z,37.10
2019-02-08T10:56:04.426Z,32.87
2019-02-08T10:59:11.904Z,32.83
2019-02-08T11:02:38.866Z,34.80
2019-02-08T11:05:58.988Z,29.37
2019-02-08T11:09:12.822Z,30.47
2019-02-08T11:12:52.052Z,30.30
2019-02-08T11:16:11.780Z,29.20
2019-02-08T11:19:12.277Z,28.07
2019-02-08T11:21:43.299Z,28.33
2019-02-08T11:24:17.465Z,27.53
2019-02-08T11:26:49.004Z,29.67
2019-02-08T11:29:20.101Z,29.10
2019-02-08T11:31:51.047Z,29.30
2019-02-08T11:34:22.105Z,29.30
2019-02-08T11:36:53.157Z,30.67
2019-02-08T11:39:24.112Z,29.30
2019-02-08T11:41:55.405Z,30.57
2019-02-08T11:44:27.099Z,30.40
2019-02-08T11:46:58.029Z,29.73
2019-02-08T11:49:28.818Z,31.97
2019-02-08T11:51:59.479Z,31.70
2019-02-08T11:54:30.236Z,31.60
2019-02-08T11:57:00.878Z,34.17
2019-02-08T11:59:31.814Z,33.33
2019-02-08T12:02:02.850Z,33.87
2019-02-08T12:04:33.808Z,32.80
2019-02-08T12:07:04.704Z,33.23
2019-02-08T12:09:35.332Z,34.23
2019-02-08T12:12:06.116Z,34.07
2019-02-08T12:14:37.282Z,33.17
2019-02-08T12:17:08.118Z,33.27
2019-02-08T12:19:39.294Z,31.63
2019-02-08T12:22:09.934Z,32.63
2019-02-08T12:24:41.058Z,32.83
2019-02-08T12:27:12.977Z,33.60
2019-02-08T12:29:43.741Z,32.13
2019-02-08T12:32:14.942Z,32.87
2019-02-08T12:34:45.922Z,31.57
2019-02-08T12:37:16.771Z,28.20
2019-02-08T12:39:47.469Z,30.83
2019-02-08T12:42:18.159Z,30.17
2019-02-08T12:44:48.746Z,28.27
2019-02-08T12:47:19.756Z,24.83
2019-02-08T12:49:50.568Z,20.23
2019-02-08T12:52:21.589Z,21.30
2019-02-08T12:54:53.102Z,24.20
2019-02-08T12:57:24.820Z,19.27
2019-02-08T12:59:55.572Z,17.33
2019-02-08T13:02:26.395Z,18.30
2019-02-08T13:04:57.507Z,16.67
2019-02-08T13:07:28.030Z,16.73
2019-02-08T13:09:58.907Z,15.73
2019-02-08T13:12:29.813Z,16.33
2019-02-08T13:15:00.706Z,16.70
2019-02-08T13:17:32.026Z,15.50
2019-02-08T13:20:02.541Z,15.67
2019-02-08T13:22:33.298Z,15.33
2019-02-08T13:25:04.123Z,16.50
2019-02-08T13:27:36.056Z,17.37
2019-02-08T13:30:16.808Z,17.43
2019-02-08T13:32:48.252Z,17.67
2019-02-08T13:35:19.567Z,15.80
2019-02-08T13:37:50.936Z,17.47
2019-02-08T13:40:22.577Z,15.17
2019-02-08T13:42:54.877Z,14.60
2019-02-08T13:45:26.590Z,15.87
2019-02-08T13:47:57.559Z,14.07
2019-02-08T13:50:28.942Z,14.87
2019-02-08T13:52:59.867Z,16.33
2019-02-08T13:55:30.855Z,15.57
2019-02-08T13:58:01.732Z,17.27
2019-02-08T14:00:36.901Z,14.90
2019-02-08T14:03:08.309Z,16.47
2019-02-08T14:05:40.009Z,18.03
2019-02-08T14:08:10.901Z,16.33
2019-02-08T14:10:42.388Z,17.50
2019-02-08T14:13:13.686Z,17.10
2019-02-08T14:15:44.397Z,17.13
2019-02-08T14:18:15.383Z,18.10
2019-02-08T14:20:46.358Z,17.67
2019-02-08T14:23:17.120Z,16.33
2019-02-08T14:25:48.302Z,18.50
2019-02-08T14:28:19.033Z,16.37
2019-02-08T14:30:49.780Z,16.40
2019-02-08T14:33:20.366Z,15.13
2019-02-08T14:35:51.330Z,15.57
2019-02-08T14:38:23.384Z,14.00
2019-02-08T14:40:54.236Z,15.27
2019-02-08T14:43:25.100Z,15.57
2019-02-08T14:45:55.655Z,16.93
2019-02-08T14:48:26.447Z,13.77
2019-02-08T14:50:56.937Z,12.30
2019-02-08T14:53:27.873Z,15.33
2019-02-08T14:55:58.652Z,12.90
2019-02-08T14:58:29.632Z,14.77
2019-02-08T15:01:00.423Z,17.97
2019-02-08T15:03:31.343Z,17.33
2019-02-08T15:06:02.309Z,17.13
2019-02-08T15:08:33.290Z,14.40
2019-02-08T15:11:03.807Z,16.47
2019-02-08T15:13:34.964Z,16.37
2019-02-08T15:16:05.949Z,15.07
2019-02-08T15:18:36.749Z,16.70
2019-02-08T15:21:07.439Z,15.33
2019-02-08T15:23:38.390Z,15.13
2019-02-08T15:26:09.218Z,14.27
2019-02-08T15:28:40.286Z,13.63
2019-02-08T15:31:11.082Z,14.43
2019-02-08T15:33:41.869Z,13.73
2019-02-08T15:36:12.488Z,15.47
2019-02-08T15:38:43.259Z,14.27
2019-02-08T15:41:13.745Z,13.60
2019-02-08T15:43:44.682Z,14.57
2019-02-08T15:46:15.663Z,14.00
2019-02-08T15:48:46.681Z,17.63
2019-02-08T15:51:17.892Z,14.33
2019-02-08T15:53:48.655Z,15.50
2019-02-08T15:56:21.254Z,19.03
2019-02-08T15:58:52.634Z,17.07
2019-02-08T16:01:23.587Z,21.37
2019-02-08T16:03:54.379Z,16.93
2019-02-08T16:06:25.120Z,15.80
2019-02-08T16:08:55.998Z,25.20
2019-02-08T16:11:26.662Z,19.13
2019-02-08T16:13:57.669Z,20.83
2019-02-08T16:16:28.142Z,15.73
2019-02-08T16:18:58.945Z,20.30
2019-02-08T16:21:29.958Z,19.90
2019-02-08T16:24:01.051Z,24.20
2019-02-08T16:26:32.957Z,23.47
2019-02-08T16:29:04.367Z,46.43
2019-02-08T16:31:35.060Z,23.37
2019-02-08T16:34:06.382Z,20.33
2019-02-08T16:36:37.607Z,22.77
2019-02-08T16:39:10.578Z,20.70
2019-02-08T16:41:41.937Z,19.23
2019-02-08T16:44:13.038Z,20.43
2019-02-08T16:46:44.030Z,21.13
2019-02-08T16:49:15.053Z,23.23
2019-02-08T16:51:46.081Z,24.37
2019-02-08T16:54:16.815Z,26.77
2019-02-08T16:56:47.604Z,26.00
2019-02-08T16:59:18.678Z,28.47
2019-02-08T17:01:49.803Z,30.80
2019-02-08T17:04:23.744Z,31.20
2019-02-08T17:06:54.775Z,26.33
2019-02-08T17:09:25.788Z,33.93
2019-02-08T17:11:56.620Z,33.77
2019-02-08T17:14:27.298Z,32.43
2019-02-08T17:16:57.804Z,36.53
2019-02-08T17:19:28.559Z,33.33
2019-02-08T17:21:59.206Z,33.30
2019-02-08T17:24:30.078Z,31.97
2019-02-08T17:27:00.789Z,34.80
2019-02-08T17:29:31.738Z,34.53
2019-02-08T17:32:02.641Z,35.30
2019-02-08T17:34:33.969Z,36.27
2019-02-08T17:37:05.124Z,55.37
2019-02-08T17:39:36.251Z,44.37
2019-02-08T17:42:07.612Z,43.50
2019-02-08T17:44:38.661Z,50.20
2019-02-08T17:47:09.718Z,51.90
2019-02-08T17:49:40.804Z,50.00
2019-02-08T17:52:11.762Z,41.30
2019-02-08T17:54:42.916Z,44.67
2019-02-08T17:57:14.087Z,38.80
2019-02-08T17:59:45.070Z,45.90
2019-02-08T18:02:16.212Z,49.57
2019-02-08T18:04:47.083Z,78.60
2019-02-08T18:07:18.396Z,51.60
2019-02-08T18:09:49.314Z,43.93
2019-02-08T18:12:20.170Z,43.37
2019-02-08T18:14:51.005Z,42.80
2019-02-08T18:17:22.868Z,41.93
2019-02-08T18:19:53.851Z,44.70
2019-02-08T18:22:26.204Z,40.87
2019-02-08T18:24:57.317Z,43.60
2019-02-08T18:27:28.149Z,39.40
2019-02-08T18:29:58.993Z,44.93
2019-02-08T18:32:29.798Z,51.97
2019-02-08T18:35:00.531Z,82.93
2019-02-08T18:37:31.581Z,45.87
2019-02-08T18:40:02.437Z,47.33
2019-02-08T18:42:34.569Z,51.17
2019-02-08T18:45:07.029Z,48.67
2019-02-08T18:47:38.207Z,47.07
2019-02-08T18:50:21.741Z,70.70
2019-02-08T18:52:53.023Z,49.87
2019-02-08T18:55:23.954Z,52.47
2019-02-08T18:57:55.362Z,49.37
2019-02-08T19:00:28.510Z,63.03
2019-02-08T19:02:59.838Z,52.40
2019-02-08T19:05:30.970Z,39.63
2019-02-08T19:08:01.853Z,49.80
2019-02-08T19:10:32.828Z,44.70
2019-02-08T19:13:04.981Z,44.47
2019-02-08T19:15:35.933Z,50.70
2019-02-08T19:18:07.705Z,52.00
2019-02-08T19:20:39.070Z,47.07
2019-02-08T19:23:10.537Z,53.03
2019-02-08T19:25:42.747Z,48.97
2019-02-08T19:28:14.455Z,50.23
2019-02-08T19:30:45.789Z,50.67
2019-02-08T19:33:16.739Z,58.20
2019-02-08T19:35:47.612Z,59.20
2019-02-08T19:38:18.504Z,54.67
2019-02-08T19:40:49.514Z,65.63
2019-02-08T19:43:20.326Z,64.20
2019-02-08T19:45:51.907Z,70.47
2019-02-08T19:48:24.627Z,67.13
2019-02-08T19:50:56.489Z,65.93
2019-02-08T19:53:27.548Z,65.57
2019-02-08T19:55:58.375Z,60.27
2019-02-08T19:58:34.687Z,64.53
2019-02-08T20:01:02.191Z,59.40
2019-02-08T20:03:33.406Z,59.27
2019-02-08T20:06:04.600Z,59.67
2019-02-08T20:08:35.516Z,67.63
2019-02-08T20:11:07.168Z,65.40
2019-02-08T20:13:38.008Z,62.63
2019-02-08T20:16:09.332Z,63.83
2019-02-08T20:18:40.442Z,61.43
2019-02-08T20:21:11.587Z,76.63
2019-02-08T20:23:43.337Z,71.47
2019-02-08T20:26:14.600Z,74.97
2019-02-08T20:28:45.634Z,78.63
2019-02-08T20:31:16.614Z,84.50
2019-02-08T20:33:47.597Z,77.70
2019-02-08T20:36:19.537Z,65.87
2019-02-08T20:38:50.159Z,72.37
2019-02-08T20:41:20.899Z,72.50
2019-02-08T20:43:52.255Z,71.17
2019-02-08T20:46:22.928Z,71.57
2019-02-08T20:48:53.636Z,74.10
2019-02-08T20:51:26.447Z,69.77
2019-02-08T20:53:57.213Z,58.97
2019-02-08T20:56:27.956Z,77.57
2019-02-08T20:58:58.698Z,87.33
2019-02-08T21:01:29.482Z,83.27
2019-02-08T21:04:00.248Z,87.37
2019-02-08T21:06:31.219Z,74.43
2019-02-08T21:09:02.170Z,70.17
2019-02-08T21:11:35.360Z,72.40
2019-02-08T21:14:06.370Z,77.07
2019-02-08T21:16:37.279Z,72.33
2019-02-08T21:19:08.287Z,67.83
2019-02-08T21:21:39.608Z,61.50
2019-02-08T21:24:10.445Z,61.83
2019-02-08T21:26:41.178Z,62.67
2019-02-08T21:29:12.135Z,60.07
2019-02-08T21:31:43.288Z,58.00
2019-02-08T21:34:14.247Z,59.43
2019-02-08T21:36:45.430Z,60.23
2019-02-08T21:39:16.007Z,54.43
2019-02-08T21:41:46.890Z,52.80
2019-02-08T21:44:18.253Z,52.30
2019-02-08T21:46:49.076Z,56.10
2019-02-08T21:49:20.625Z,81.80
2019-02-08T21:51:51.311Z,85.60
2019-02-08T21:54:23.045Z,73.80
2019-02-08T21:56:54.060Z,71.33
2019-02-08T21:59:24.969Z,72.80
2019-02-08T22:01:55.728Z,64.10
2019-02-08T22:04:26.872Z,64.67
2019-02-08T22:06:57.567Z,54.03
2019-02-08T22:09:28.735Z,67.50
2019-02-08T22:12:00.334Z,77.07
2019-02-08T22:14:31.354Z,68.77
2019-02-08T22:17:02.445Z,103.07
2019-02-08T22:19:33.585Z,91.03
2019-02-08T22:22:04.984Z,69.93
2019-02-08T22:24:36.118Z,67.83
2019-02-08T22:27:07.263Z,63.17
2019-02-08T22:29:38.372Z,67.30
2019-02-08T22:32:09.246Z,70.50
2019-02-08T22:34:40.771Z,66.20
2019-02-08T22:37:12.651Z,67.47
2019-02-08T22:39:45.321Z,64.97
2019-02-08T22:42:17.123Z,59.90
2019-02-08T22:44:47.852Z,70.67
2019-02-08T22:47:19.041Z,65.77
2019-02-08T22:49:49.978Z,65.57
2019-02-08T22:52:21.111Z,58.27
2019-02-08T22:54:54.739Z,70.20
2019-02-08T22:57:25.570Z,63.00
2019-02-08T22:59:56.235Z,62.53
2019-02-08T23:02:27.102Z,61.20
2019-02-08T23:04:58.062Z,55.43
2019-02-08T23:07:28.774Z,62.30
2019-02-08T23:09:59.610Z,75.07
2019-02-08T23:12:30.817Z,69.37
2019-02-08T23:15:03.641Z,64.93
2019-02-08T23:17:37.157Z,72.67
2019-02-08T23:20:09.579Z,68.73
2019-02-08T23:22:40.530Z,68.87
2019-02-08T23:25:11.643Z,70.47
2019-02-08T23:27:43.043Z,83.90
2019-02-08T23:30:14.496Z,69.80
2019-02-08T23:32:45.570Z,59.43
2019-02-08T23:35:16.665Z,71.80
2019-02-08T23:37:47.487Z,74.83
2019-02-08T23:40:18.890Z,68.57
2019-02-08T23:42:49.740Z,72.87
2019-02-08T23:45:20.882Z,65.00
2019-02-08T23:47:51.888Z,59.73
2019-02-08T23:50:22.700Z,61.17
2019-02-08T23:52:54.212Z,71.87
2019-02-08T23:55:25.328Z,54.50
2019-02-08T23:57:56.409Z,52.70
